createdAt,value
2019-03-22T00:00:13.757Z,95468.23
2019-03-22T00:02:42.370Z,95463.90
2019-03-22T00:05:11.089Z,95464.84
2019-03-22T00:07:39.745Z,95460.81
2019-03-22T00:10:08.967Z,95463.03
2019-03-22T00:12:37.590Z,95461.77
2019-03-22T00:15:08.016Z,95461.33
2019-03-22T00:17:36.636Z,95452.23
2019-03-22T00:20:08.508Z,95452.59
2019-03-22T00:22:37.164Z,95448.91
2019-03-22T00:25:06.989Z,95449.80
2019-03-22T00:27:35.614Z,95445.30
2019-03-22T00:30:09.127Z,95445.83
2019-03-22T00:32:37.819Z,95446.87
2019-03-22T00:35:08.215Z,95450.58
2019-03-22T00:37:36.876Z,95449.78
2019-03-22T00:40:07.100Z,95455.42
2019-03-22T00:42:35.721Z,95454.25
2019-03-22T00:45:06.181Z,95447.98
2019-03-22T00:47:34.805Z,95449.52
2019-03-22T00:50:05.362Z,95452.81
2019-03-22T00:52:34.018Z,95447.97
2019-03-22T00:55:02.642Z,95447.59
2019-03-22T00:57:31.257Z,95448.52
2019-03-22T00:59:59.918Z,95448.77
2019-03-22T01:02:28.543Z,95445.59
2019-03-22T01:04:57.216Z,95443.14
2019-03-22T01:07:25.881Z,95450.66
2019-03-22T01:09:54.498Z,95454.70
2019-03-22T01:12:23.111Z,95448.80
2019-03-22T01:14:51.757Z,95441.39
2019-03-22T01:17:20.372Z,95441.39
2019-03-22T01:19:48.995Z,95435.98
2019-03-22T01:22:17.646Z,95446.21
2019-03-22T01:24:46.335Z,95448.93
2019-03-22T01:27:14.953Z,95438.84
2019-03-22T01:29:43.613Z,95438.84
2019-03-22T01:32:12.230Z,95439.39
2019-03-22T01:34:40.846Z,95438.19
2019-03-22T01:37:09.522Z,95438.19
2019-03-22T01:39:38.137Z,95437.75
2019-03-22T01:42:06.763Z,95429.88
2019-03-22T01:44:35.419Z,95435.12
2019-03-22T01:47:04.031Z,95430.53
2019-03-22T01:49:32.646Z,95434.99
2019-03-22T01:52:01.293Z,95436.23
2019-03-22T01:54:29.905Z,95434.62
2019-03-22T01:56:58.520Z,95432.45
2019-03-22T01:59:27.192Z,95420.23
2019-03-22T02:01:55.805Z,95438.07
2019-03-22T02:04:24.418Z,95433.42
2019-03-22T02:06:53.069Z,95431.59
2019-03-22T02:09:21.696Z,95429.50
2019-03-22T02:11:50.307Z,95433.17
2019-03-22T02:14:18.952Z,95433.11
2019-03-22T02:16:47.579Z,95424.09
2019-03-22T02:19:16.194Z,95432.70
2019-03-22T02:21:45.049Z,95428.92
2019-03-22T02:24:13.676Z,95430.76
2019-03-22T02:26:42.282Z,95429.53
2019-03-22T02:29:10.931Z,95433.22
2019-03-22T02:31:39.549Z,95425.17
2019-03-22T02:34:08.166Z,95432.38
2019-03-22T02:36:36.891Z,95434.14
2019-03-22T02:39:06.808Z,95436.27
2019-03-22T02:41:35.435Z,95437.82
2019-03-22T02:44:04.094Z,95441.71
2019-03-22T02:46:32.703Z,95438.43
2019-03-22T02:49:01.332Z,95443.30
2019-03-22T02:51:29.964Z,95444.38
2019-03-22T02:53:58.506Z,95448.16
2019-03-22T02:56:27.122Z,95445.46
2019-03-22T02:58:59.130Z,95438.69
2019-03-22T03:01:26.116Z,95450.03
2019-03-22T03:03:54.728Z,95452.56
2019-03-22T03:06:23.377Z,95450.95
2019-03-22T03:08:51.995Z,95432.56
2019-03-22T03:11:20.621Z,95446.98
2019-03-22T03:13:49.271Z,95447.30
2019-03-22T03:16:17.809Z,95448.08
2019-03-22T03:18:46.426Z,95452.97
2019-03-22T03:21:15.090Z,95445.71
2019-03-22T03:23:43.701Z,95446.94
2019-03-22T03:26:12.314Z,95439.11
2019-03-22T03:28:40.964Z,95446.86
2019-03-22T03:31:09.582Z,95443.65
2019-03-22T03:33:38.208Z,95451.45
2019-03-22T03:36:06.853Z,95447.10
2019-03-22T03:38:35.409Z,95443.56
2019-03-22T03:41:04.014Z,95438.19
2019-03-22T03:43:32.675Z,95437.89
2019-03-22T03:46:01.289Z,95441.96
2019-03-22T03:48:29.914Z,95435.73
2019-03-22T03:50:58.583Z,95434.04
2019-03-22T03:53:27.212Z,95432.81
2019-03-22T03:55:55.834Z,95434.05
2019-03-22T03:58:24.472Z,95438.22
2019-03-22T04:00:53.099Z,95441.84
2019-03-22T04:03:21.720Z,95437.42
2019-03-22T04:05:50.392Z,95440.05
2019-03-22T04:08:19.028Z,95445.98
2019-03-22T04:10:47.648Z,95441.63
2019-03-22T04:13:16.306Z,95440.27
2019-03-22T04:15:44.920Z,95444.45
2019-03-22T04:18:13.533Z,95444.56
2019-03-22T04:20:42.197Z,95446.75
2019-03-22T04:23:10.822Z,95441.42
2019-03-22T04:25:39.368Z,95437.89
2019-03-22T04:28:08.051Z,95437.64
2019-03-22T04:30:36.637Z,95436.01
2019-03-22T04:33:06.838Z,95442.73
2019-03-22T04:35:35.687Z,95444.13
2019-03-22T04:38:04.306Z,95439.20
2019-03-22T04:40:32.936Z,95441.56
2019-03-22T04:43:01.726Z,95446.06
2019-03-22T04:45:32.042Z,95444.02
2019-03-22T04:48:06.629Z,95446.34
2019-03-22T04:50:38.114Z,95440.63
2019-03-22T04:53:09.375Z,95446.94
2019-03-22T04:55:40.770Z,95457.41
2019-03-22T04:58:11.095Z,95452.45
2019-03-22T05:00:40.312Z,95463.95
2019-03-22T05:03:10.167Z,95462.84
2019-03-22T05:05:38.887Z,95471.52
2019-03-22T05:08:08.604Z,95467.02
2019-03-22T05:10:38.458Z,95463.02
2019-03-22T05:13:09.951Z,95470.32
2019-03-22T05:15:39.146Z,95472.76
2019-03-22T05:18:08.513Z,95474.50
2019-03-22T05:20:38.133Z,95473.87
2019-03-22T05:23:07.266Z,95473.10
2019-03-22T05:25:38.738Z,95477.58
2019-03-22T05:28:09.740Z,95475.36
2019-03-22T05:31:02.334Z,95482.43
2019-03-22T05:33:30.961Z,95476.85
2019-03-22T05:35:59.597Z,95481.34
2019-03-22T05:38:28.245Z,95479.48
2019-03-22T05:40:56.876Z,95479.20
2019-03-22T05:43:25.486Z,95472.73
2019-03-22T05:45:54.152Z,95468.14
2019-03-22T05:48:22.770Z,95471.44
2019-03-22T05:50:51.469Z,95460.19
2019-03-22T05:53:20.133Z,95460.19
2019-03-22T05:55:48.764Z,95471.37
2019-03-22T05:58:17.384Z,95466.03
2019-03-22T06:00:46.054Z,95472.05
2019-03-22T06:03:14.687Z,95465.45
2019-03-22T06:05:43.308Z,95465.45
2019-03-22T06:08:11.966Z,95464.73
2019-03-22T06:10:40.594Z,95463.84
2019-03-22T06:13:09.214Z,95463.84
2019-03-22T06:15:37.872Z,95460.92
2019-03-22T06:18:06.500Z,95444.98
2019-03-22T06:20:35.131Z,95466.45
2019-03-22T06:23:03.994Z,95472.22
2019-03-22T06:25:32.632Z,95468.78
2019-03-22T06:28:01.254Z,95468.78
2019-03-22T06:30:29.931Z,95474.23
2019-03-22T06:32:58.558Z,95467.97
2019-03-22T06:35:27.184Z,95465.70
2019-03-22T06:37:55.851Z,95465.70
2019-03-22T06:40:24.476Z,95452.27
2019-03-22T06:42:53.093Z,95464.09
2019-03-22T06:45:21.758Z,95464.70
2019-03-22T06:47:50.391Z,95457.42
2019-03-22T06:50:19.015Z,95460.02
2019-03-22T06:52:47.670Z,95465.44
2019-03-22T06:55:16.300Z,95463.11
2019-03-22T06:57:44.927Z,95468.88
2019-03-22T07:02:56.493Z,95459.95
2019-03-22T07:05:25.122Z,95466.24
2019-03-22T07:07:53.674Z,95459.40
2019-03-22T07:10:22.403Z,95462.38
2019-03-22T07:12:51.040Z,95466.91
2019-03-22T07:15:19.666Z,95462.30
2019-03-22T07:17:48.328Z,95466.61
2019-03-22T07:20:16.968Z,95451.16
2019-03-22T07:22:45.588Z,95459.00
2019-03-22T07:25:14.271Z,95453.50
2019-03-22T07:27:42.895Z,95457.89
2019-03-22T07:30:18.964Z,95456.20
2019-03-22T07:32:44.790Z,95447.14
2019-03-22T07:35:13.533Z,95447.14
2019-03-22T07:37:42.137Z,95454.34
2019-03-22T07:40:12.119Z,95457.61
2019-03-22T07:42:40.742Z,95454.81
2019-03-22T07:45:12.010Z,95449.72
2019-03-22T07:47:40.663Z,95447.88
2019-03-22T07:50:11.468Z,95448.20
2019-03-22T07:52:40.108Z,95442.70
2019-03-22T07:55:08.867Z,95440.95
2019-03-22T07:57:37.508Z,95435.52
2019-03-22T08:00:08.875Z,95435.91
2019-03-22T08:02:37.539Z,95432.59
2019-03-22T08:05:07.380Z,95430.02
2019-03-22T08:07:36.026Z,95433.39
2019-03-22T08:10:06.867Z,95428.77
2019-03-22T08:12:35.483Z,95430.08
2019-03-22T08:15:08.208Z,95429.86
2019-03-22T08:17:36.310Z,95421.56
2019-03-22T08:20:07.034Z,95418.95
2019-03-22T08:22:35.653Z,95413.57
2019-03-22T08:25:04.713Z,95411.16
2019-03-22T08:27:33.346Z,95414.87
2019-03-22T08:30:01.976Z,95405.05
2019-03-22T08:32:30.616Z,95398.94
2019-03-22T08:34:59.292Z,95407.73
2019-03-22T08:37:27.910Z,95403.55
2019-03-22T08:39:56.501Z,95406.13
2019-03-22T08:42:25.131Z,95400.61
2019-03-22T08:44:53.735Z,95394.11
2019-03-22T08:47:33.095Z,95400.08
2019-03-22T08:49:52.746Z,95392.81
2019-03-22T08:52:21.394Z,95396.08
2019-03-22T08:54:50.047Z,95383.42
2019-03-22T08:57:18.610Z,95389.83
2019-03-22T08:59:47.254Z,95394.79
2019-03-22T09:02:15.985Z,95379.42
2019-03-22T09:04:44.684Z,95371.12
2019-03-22T09:07:13.324Z,95372.02
2019-03-22T09:09:42.101Z,95370.11
2019-03-22T09:12:10.712Z,95368.15
2019-03-22T09:14:39.291Z,95370.25
2019-03-22T09:17:07.980Z,95361.72
2019-03-22T09:19:36.618Z,95358.53
2019-03-22T09:22:05.283Z,95356.87
2019-03-22T09:24:39.105Z,95364.93
2019-03-22T09:27:04.284Z,95356.27
2019-03-22T09:29:32.940Z,95348.73
2019-03-22T09:32:01.692Z,95344.83
2019-03-22T09:34:33.935Z,95344.11
2019-03-22T09:37:00.665Z,95351.13
2019-03-22T09:39:29.294Z,95350.55
2019-03-22T09:41:57.947Z,95347.14
2019-03-22T09:44:28.231Z,95344.81
2019-03-22T09:46:56.991Z,95338.80
2019-03-22T09:49:25.665Z,95339.08
2019-03-22T09:51:55.305Z,95329.42
2019-03-22T09:54:24.073Z,95332.23
2019-03-22T09:56:52.734Z,95323.52
2019-03-22T09:59:21.347Z,95325.82
2019-03-22T10:01:49.990Z,95322.46
2019-03-22T10:04:18.711Z,95310.55
2019-03-22T10:06:47.517Z,95305.01
2019-03-22T10:09:16.131Z,95312.55
2019-03-22T10:11:44.864Z,95314.73
2019-03-22T10:14:13.443Z,95309.41
2019-03-22T10:16:42.102Z,95295.12
2019-03-22T10:19:10.723Z,95286.95
2019-03-22T10:21:39.341Z,95292.51
2019-03-22T10:24:08.037Z,95302.49
2019-03-22T10:26:36.722Z,95287.27
2019-03-22T10:29:06.922Z,95289.78
2019-03-22T10:31:37.543Z,95284.20
2019-03-22T10:34:06.095Z,95276.61
2019-03-22T10:36:34.773Z,95283.32
2019-03-22T10:39:04.317Z,95276.67
2019-03-22T10:41:33.085Z,95268.39
2019-03-22T10:44:01.650Z,95264.03
2019-03-22T10:46:30.373Z,95252.84
2019-03-22T10:48:59.004Z,95252.97
2019-03-22T10:51:27.621Z,95262.41
2019-03-22T10:53:56.303Z,95254.31
2019-03-22T10:56:25.126Z,95249.62
2019-03-22T10:58:53.703Z,95247.34
2019-03-22T11:01:22.350Z,95246.59
2019-03-22T11:03:51.227Z,95244.44
2019-03-22T11:06:26.125Z,95243.39
2019-03-22T11:08:50.250Z,95227.02
2019-03-22T11:11:18.866Z,95232.31
2019-03-22T11:13:47.563Z,95227.79
2019-03-22T11:16:16.222Z,95217.55
2019-03-22T11:18:44.847Z,95214.30
2019-03-22T11:21:13.479Z,95211.25
2019-03-22T11:23:42.129Z,95214.16
2019-03-22T11:26:10.750Z,95212.01
2019-03-22T11:28:39.375Z,95206.37
2019-03-22T11:31:08.041Z,95205.06
2019-03-22T11:33:36.671Z,95203.66
2019-03-22T11:36:05.385Z,95205.31
2019-03-22T11:38:34.043Z,95195.66
2019-03-22T11:41:02.669Z,95182.22
2019-03-22T11:43:31.294Z,95177.05
2019-03-22T11:45:59.944Z,95177.44
2019-03-22T11:48:28.564Z,95170.83
2019-03-22T11:50:57.198Z,95164.76
2019-03-22T11:53:25.895Z,95164.31
2019-03-22T11:55:54.486Z,95160.16
2019-03-22T11:58:23.106Z,95158.48
2019-03-22T12:00:51.773Z,95162.61
2019-03-22T12:03:20.393Z,95161.23
2019-03-22T12:05:49.020Z,95149.84
2019-03-22T12:08:17.675Z,95149.13
2019-03-22T12:10:46.299Z,95148.45
2019-03-22T12:13:14.924Z,95137.97
2019-03-22T12:15:43.582Z,95138.88
2019-03-22T12:18:12.204Z,95129.08
2019-03-22T12:20:40.821Z,95132.89
2019-03-22T12:23:09.481Z,95129.86
2019-03-22T12:25:38.113Z,95132.88
2019-03-22T12:28:06.740Z,95128.65
2019-03-22T12:30:35.403Z,95125.78
2019-03-22T12:33:04.017Z,95127.16
2019-03-22T12:35:32.642Z,95114.00
2019-03-22T12:38:01.297Z,95114.27
2019-03-22T12:40:29.917Z,95118.72
2019-03-22T12:42:58.551Z,95116.02
2019-03-22T12:45:32.566Z,95109.13
2019-03-22T12:48:01.192Z,95109.90
2019-03-22T12:50:29.828Z,95104.16
2019-03-22T12:52:58.479Z,95093.46
2019-03-22T12:55:27.103Z,95091.74
2019-03-22T12:57:55.731Z,95092.72
2019-03-22T13:00:27.628Z,95096.83
2019-03-22T13:02:56.469Z,95086.34
2019-03-22T13:05:25.085Z,95087.05
2019-03-22T13:07:53.756Z,95077.84
2019-03-22T13:10:27.235Z,95075.69
2019-03-22T13:12:56.052Z,95069.59
2019-03-22T13:15:24.757Z,95069.70
2019-03-22T13:17:53.357Z,95071.45
2019-03-22T13:20:21.987Z,95063.64
2019-03-22T13:42:54.085Z,95023.83
2019-03-22T13:45:22.709Z,95030.98
2019-03-22T13:47:51.335Z,95030.05
2019-03-22T13:50:20.083Z,95029.01
2019-03-22T13:52:48.710Z,95022.87
2019-03-22T13:55:17.339Z,95024.56
2019-03-22T13:57:46.008Z,95021.32
2019-03-22T14:00:18.325Z,95020.64
2019-03-22T14:02:46.947Z,95017.13
2019-03-22T14:05:15.678Z,95013.81
2019-03-22T14:07:44.317Z,95007.93
2019-03-22T14:10:32.735Z,95019.02
2019-03-22T14:13:02.654Z,95012.73
2019-03-22T14:15:31.282Z,95010.13
2019-03-22T14:18:00.123Z,95006.05
2019-03-22T14:20:29.141Z,95000.45
2019-03-22T14:22:57.763Z,94993.72
2019-03-22T14:25:26.427Z,94997.70
2019-03-22T14:27:55.052Z,94999.05
2019-03-22T14:30:23.677Z,94998.05
2019-03-22T14:32:52.327Z,94993.39
2019-03-22T14:35:20.957Z,94989.05
2019-03-22T14:37:49.584Z,94990.73
2019-03-22T14:40:18.242Z,94986.75
2019-03-22T14:42:46.881Z,94986.37
2019-03-22T14:45:15.699Z,94982.53
2019-03-22T14:47:44.379Z,94979.00
2019-03-22T14:50:13.094Z,94977.04
2019-03-22T14:52:41.727Z,94974.67
2019-03-22T14:55:10.387Z,94970.97
2019-03-22T14:57:48.173Z,94977.44
2019-03-22T15:00:11.695Z,94979.55
2019-03-22T15:02:40.352Z,94977.73
2019-03-22T15:05:08.960Z,94973.84
2019-03-22T15:07:37.687Z,94977.03
2019-03-22T15:10:11.180Z,94974.29
2019-03-22T15:12:39.814Z,94977.55
2019-03-22T15:15:14.019Z,94974.59
2019-03-22T15:17:59.231Z,94981.23
2019-03-22T15:20:32.181Z,94981.80
2019-03-22T15:23:02.438Z,94980.20
2019-03-22T15:25:38.552Z,94981.30
2019-03-22T15:28:24.988Z,94984.65
2019-03-22T15:31:07.136Z,94980.48
2019-03-22T15:33:37.473Z,94983.59
2019-03-22T15:38:46.333Z,94994.95
2019-03-22T15:41:15.047Z,94994.89
2019-03-22T15:43:43.684Z,94998.79
2019-03-22T15:46:12.358Z,94997.03
2019-03-22T15:48:40.918Z,94987.56
2019-03-22T15:51:09.604Z,94995.53
2019-03-22T15:53:38.267Z,94997.55
2019-03-22T15:56:06.889Z,95003.80
2019-03-22T15:58:36.287Z,95002.11
2019-03-22T16:01:05.758Z,95000.81
2019-03-22T16:03:43.888Z,95006.45
2019-03-22T16:06:04.717Z,95015.78
2019-03-22T16:08:33.376Z,95016.98
2019-03-22T16:11:01.998Z,95020.27
2019-03-22T16:13:30.649Z,95016.67
2019-03-22T16:15:59.290Z,95015.27
2019-03-22T16:18:27.907Z,95022.81
2019-03-22T16:21:00.006Z,95029.09
2019-03-22T16:23:26.915Z,95019.28
2019-03-22T16:25:55.536Z,95025.73
2019-03-22T16:28:24.259Z,95015.61
2019-03-22T16:30:53.196Z,95020.77
2019-03-22T16:33:22.058Z,95024.25
2019-03-22T16:35:50.898Z,95019.35
2019-03-22T16:38:19.820Z,95021.52
2019-03-22T16:40:48.705Z,95020.88
2019-03-22T16:43:17.580Z,95031.39
2019-03-22T16:45:46.494Z,95026.91
2019-03-22T16:48:15.349Z,95028.98
2019-03-22T16:50:44.200Z,95031.03
2019-03-22T16:53:13.215Z,95034.23
2019-03-22T16:55:42.071Z,95036.09
2019-03-22T16:58:10.931Z,95032.14
2019-03-22T17:00:40.342Z,95033.18
2019-03-22T17:03:09.199Z,95034.01
2019-03-22T17:05:38.455Z,95031.87
2019-03-22T17:08:07.396Z,95039.11
2019-03-22T17:10:36.247Z,95035.34
2019-03-22T17:13:05.403Z,95034.56
2019-03-22T17:15:34.317Z,95033.20
2019-03-22T17:18:03.168Z,95034.62
2019-03-22T17:20:32.016Z,95031.23
2019-03-22T17:23:00.932Z,95032.20
2019-03-22T17:25:29.806Z,95033.63
2019-03-22T17:27:58.667Z,95031.01
2019-03-22T17:30:27.606Z,95036.27
2019-03-22T17:32:56.471Z,95046.31
2019-03-22T17:35:25.322Z,95044.50
2019-03-22T17:37:54.253Z,95040.69
2019-03-22T17:40:23.122Z,95039.91
2019-03-22T17:42:53.029Z,95046.16
2019-03-22T17:45:22.388Z,95040.86
2019-03-22T17:47:51.268Z,95043.02
2019-03-22T17:50:20.358Z,95040.23
2019-03-22T17:52:49.274Z,95046.31
2019-03-22T17:55:18.327Z,95046.26
2019-03-22T17:57:50.500Z,95047.07
2019-03-22T18:00:21.820Z,95048.91
2019-03-22T18:02:50.695Z,95049.38
2019-03-22T18:05:19.573Z,95052.06
2019-03-22T18:07:48.511Z,95053.09
2019-03-22T18:10:17.373Z,95055.78
2019-03-22T18:12:46.233Z,95053.14
2019-03-22T18:15:15.165Z,95054.58
2019-03-22T18:17:44.034Z,95051.44
2019-03-22T18:20:14.957Z,95057.61
2019-03-22T18:22:43.878Z,95060.12
2019-03-22T18:25:12.926Z,95059.75
2019-03-22T18:27:41.801Z,95063.50
2019-03-22T18:30:15.067Z,95075.84
2019-03-22T18:32:43.918Z,95073.83
2019-03-22T18:35:13.103Z,95074.30
2019-03-22T18:37:42.020Z,95075.09
2019-03-22T18:40:12.712Z,95073.19
2019-03-22T18:42:41.582Z,95072.11
2019-03-22T18:45:14.726Z,95070.67
2019-03-22T18:47:43.690Z,95074.47
2019-03-22T18:50:14.064Z,95074.14
2019-03-22T18:52:43.295Z,95073.36
2019-03-22T18:55:12.238Z,95071.10
2019-03-22T18:57:41.115Z,95065.53
2019-03-22T19:00:18.430Z,95071.66
2019-03-22T19:02:47.389Z,95069.23
2019-03-22T19:05:16.747Z,95070.34
2019-03-22T19:07:45.775Z,95070.58
2019-03-22T19:10:16.263Z,95071.92
2019-03-22T19:12:45.171Z,95074.70
2019-03-22T19:15:14.726Z,95068.35
2019-03-22T19:17:43.604Z,95067.23
2019-03-22T19:20:13.759Z,95075.30
2019-03-22T19:22:42.687Z,95070.28
2019-03-22T19:25:15.526Z,95070.61
2019-03-22T19:27:44.321Z,95070.37
2019-03-22T19:30:14.655Z,95065.47
2019-03-22T19:32:43.530Z,95068.05
2019-03-22T19:35:13.196Z,95080.00
2019-03-22T19:37:42.133Z,95075.67
2019-03-22T19:40:13.603Z,95074.89
2019-03-22T19:42:42.470Z,95065.74
2019-03-22T19:45:13.988Z,95066.55
2019-03-22T19:47:42.934Z,95069.34
2019-03-22T19:50:14.283Z,95065.41
2019-03-22T19:52:43.264Z,95062.17
2019-03-22T19:55:14.010Z,95062.72
2019-03-22T19:57:43.012Z,95061.63
2019-03-22T20:00:19.871Z,95065.00
2019-03-22T20:02:49.336Z,95068.13
2019-03-22T20:05:24.294Z,95069.13
2019-03-22T20:07:53.190Z,95068.47
2019-03-22T20:10:22.089Z,95070.72
2019-03-22T20:12:51.043Z,95067.03
2019-03-22T20:15:20.006Z,95062.98
2019-03-22T20:17:48.922Z,95067.70
2019-03-22T20:20:17.976Z,95064.45
2019-03-22T20:22:46.870Z,95064.09
2019-03-22T20:25:15.820Z,95062.86
2019-03-22T20:27:44.745Z,95063.18
2019-03-22T20:30:15.805Z,95063.52
2019-03-22T20:32:44.784Z,95060.62
2019-03-22T20:35:16.599Z,95061.41
2019-03-22T20:37:44.569Z,95064.20
2019-03-22T20:40:16.573Z,95060.63
2019-03-22T20:42:45.516Z,95062.06
2019-03-22T20:45:23.691Z,95056.59
2019-03-22T20:47:45.356Z,95060.38
2019-03-22T20:50:14.657Z,95056.38
2019-03-22T20:52:43.517Z,95061.39
2019-03-22T20:55:12.575Z,95058.05
2019-03-22T20:57:41.512Z,95054.31
2019-03-22T21:00:19.253Z,95053.92
2019-03-22T21:02:48.197Z,95057.66
2019-03-22T21:05:26.358Z,95058.12
2019-03-22T21:07:47.724Z,95060.27
2019-03-22T21:10:16.644Z,95059.38
2019-03-22T21:12:45.508Z,95059.46
2019-03-22T21:15:23.769Z,95058.64
2019-03-22T21:17:44.812Z,95058.69
2019-03-22T21:20:13.440Z,95060.27
2019-03-22T21:22:42.063Z,95054.11
2019-03-22T21:25:11.325Z,95052.59
2019-03-22T21:27:39.947Z,95051.69
2019-03-22T21:30:10.731Z,95056.17
2019-03-22T21:32:45.090Z,95054.95
2019-03-22T21:35:09.862Z,95062.94
2019-03-22T21:37:38.489Z,95049.93
2019-03-22T21:40:08.129Z,95050.55
2019-03-22T21:42:36.756Z,95047.48
2019-03-22T21:45:08.962Z,95062.89
2019-03-22T21:47:37.631Z,95061.25
2019-03-22T21:50:08.356Z,95065.38
2019-03-22T21:52:37.050Z,95061.30
2019-03-22T21:55:07.417Z,95061.48
2019-03-22T21:57:36.051Z,95063.43
2019-03-22T22:00:06.948Z,95059.23
2019-03-22T22:02:35.619Z,95061.08
2019-03-22T22:05:05.745Z,95061.44
2019-03-22T22:07:34.308Z,95065.28
2019-03-22T22:10:03.358Z,95061.80
2019-03-22T22:12:31.990Z,95065.76
2019-03-22T22:15:00.625Z,95070.01
2019-03-22T22:17:29.210Z,95062.39
2019-03-22T22:19:57.837Z,95065.08
2019-03-22T22:22:26.475Z,95065.09
2019-03-22T22:24:55.066Z,95068.69
2019-03-22T22:27:23.626Z,95064.80
2019-03-22T22:29:52.254Z,95070.48
2019-03-22T22:32:21.143Z,95068.86
2019-03-22T22:34:49.839Z,95069.50
2019-03-22T22:37:18.472Z,95068.30
2019-03-22T22:39:47.149Z,95061.26
2019-03-22T22:42:15.770Z,95059.26
2019-03-22T22:44:44.401Z,95063.01
2019-03-22T22:47:13.068Z,95064.48
2019-03-22T22:49:41.636Z,95064.78
2019-03-22T22:52:10.267Z,95064.38
2019-03-22T22:54:38.924Z,95065.84
2019-03-22T22:57:10.387Z,95066.73
2019-03-22T22:59:39.025Z,95060.51
2019-03-22T23:02:07.758Z,95067.87
2019-03-22T23:04:36.378Z,95066.28
2019-03-22T23:07:05.011Z,95055.49
2019-03-22T23:09:33.640Z,95062.91
2019-03-22T23:12:02.234Z,95065.56
2019-03-22T23:14:30.858Z,95075.68
2019-03-22T23:16:59.536Z,95074.16
2019-03-22T23:19:28.241Z,95076.69
2019-03-22T23:21:56.866Z,95075.22
2019-03-22T23:24:25.527Z,95079.86
2019-03-22T23:26:54.164Z,95079.36
2019-03-22T23:29:22.790Z,95079.18
2019-03-22T23:31:51.474Z,95078.77
2019-03-22T23:34:20.101Z,95075.12
2019-03-22T23:36:48.732Z,95073.12
2019-03-22T23:39:17.381Z,95072.25
2019-03-22T23:41:46.024Z,95078.21
2019-03-22T23:44:14.649Z,95067.45
2019-03-22T23:46:43.301Z,95069.31
2019-03-22T23:49:11.922Z,95058.46
2019-03-22T23:51:40.628Z,95059.19
2019-03-22T23:54:09.295Z,95055.66
2019-03-22T23:56:37.851Z,95054.37
2019-03-22T23:59:06.492Z,95047.39
